createdAt,value
2023-05-10T00:00:10.959Z,14.62
2023-05-10T00:01:10.974Z,14.61
2023-05-10T00:02:10.975Z,14.60
2023-05-10T00:03:11.057Z,14.61
2023-05-10T00:04:10.979Z,14.60
2023-05-10T00:05:10.998Z,14.62
2023-05-10T00:06:10.899Z,14.60
2023-05-10T00:07:10.920Z,14.61
2023-05-10T00:08:10.873Z,14.61
2023-05-10T00:09:10.880Z,14.61
2023-05-10T00:10:10.838Z,14.61
2023-05-10T00:11:10.855Z,14.57
2023-05-10T00:12:10.837Z,14.58
2023-05-10T00:13:10.877Z,14.57
2023-05-10T00:14:10.813Z,14.54
2023-05-10T00:15:10.800Z,14.54
2023-05-10T00:16:10.829Z,14.52
2023-05-10T00:17:10.790Z,14.51
2023-05-10T00:18:10.793Z,14.47
2023-05-10T00:19:10.778Z,14.50
2023-05-10T00:20:10.778Z,14.51
2023-05-10T00:21:10.776Z,14.47
2023-05-10T00:22:10.716Z,14.46
2023-05-10T00:23:10.720Z,14.47
2023-05-10T00:24:10.717Z,14.47
2023-05-10T00:25:10.751Z,14.47
2023-05-10T00:26:10.695Z,14.47
2023-05-10T00:27:10.680Z,14.46
2023-05-10T00:28:10.665Z,14.46
2023-05-10T00:29:10.709Z,14.43
2023-05-10T00:30:10.704Z,14.43
2023-05-10T00:31:10.649Z,14.45
2023-05-10T00:32:10.660Z,14.43
2023-05-10T00:33:10.666Z,14.40
2023-05-10T00:34:10.784Z,14.42
2023-05-10T00:35:10.923Z,14.40
2023-05-10T00:36:10.820Z,14.40
2023-05-10T00:37:10.734Z,14.39
2023-05-10T00:38:10.776Z,14.40
2023-05-10T00:39:10.957Z,14.42
2023-05-10T00:40:10.997Z,14.39
2023-05-10T00:41:10.759Z,14.42
2023-05-10T00:42:10.609Z,14.40
2023-05-10T00:43:10.727Z,14.43
2023-05-10T00:44:11.218Z,14.42
2023-05-10T00:45:10.750Z,14.40
2023-05-10T00:46:10.746Z,14.43
2023-05-10T00:47:10.730Z,14.43
2023-05-10T00:48:10.810Z,14.43
2023-05-10T00:49:10.634Z,14.46
2023-05-10T00:50:10.546Z,14.45
2023-05-10T00:51:10.578Z,14.43
2023-05-10T00:52:10.437Z,14.42
2023-05-10T00:53:10.531Z,14.42
2023-05-10T00:54:10.398Z,14.42
2023-05-10T00:55:10.395Z,14.42
2023-05-10T00:56:10.356Z,14.42
2023-05-10T00:57:10.376Z,14.42
2023-05-10T00:58:10.341Z,14.40
2023-05-10T00:59:10.355Z,14.42
2023-05-10T01:00:10.332Z,14.37
2023-05-10T01:01:10.432Z,14.36
2023-05-10T01:02:10.341Z,14.35
2023-05-10T01:03:10.389Z,14.35
2023-05-10T01:04:10.300Z,14.36
2023-05-10T01:05:10.346Z,14.35
2023-05-10T01:06:10.265Z,14.35
2023-05-10T01:07:10.255Z,14.33
2023-05-10T01:08:10.240Z,14.36
2023-05-10T01:09:10.243Z,14.35
2023-05-10T01:10:10.251Z,14.35
2023-05-10T01:11:10.221Z,14.33
2023-05-10T01:12:10.253Z,14.33
2023-05-10T01:13:10.316Z,14.32
2023-05-10T01:14:10.176Z,14.33
2023-05-10T01:15:10.193Z,14.33
2023-05-10T01:16:10.180Z,14.32
2023-05-10T01:17:10.164Z,14.35
2023-05-10T01:18:10.157Z,14.32
2023-05-10T01:19:10.136Z,14.29
2023-05-10T01:20:10.129Z,14.28
2023-05-10T01:21:10.112Z,14.28
2023-05-10T01:22:10.097Z,14.29
2023-05-10T01:23:10.083Z,14.27
2023-05-10T01:24:10.080Z,14.27
2023-05-10T01:25:10.063Z,14.27
2023-05-10T01:26:10.032Z,14.27
2023-05-10T01:27:10.055Z,14.24
2023-05-10T01:28:10.043Z,14.27
2023-05-10T01:29:10.026Z,14.24
2023-05-10T01:30:21.747Z,14.22
2023-05-10T01:31:11.004Z,14.22
2023-05-10T01:32:10.006Z,14.24
2023-05-10T01:33:09.995Z,14.24
2023-05-10T01:34:09.975Z,14.22
2023-05-10T01:35:09.954Z,14.22
2023-05-10T01:36:09.970Z,14.20
2023-05-10T01:37:10.016Z,14.21
2023-05-10T01:38:09.930Z,14.22
2023-05-10T01:39:09.900Z,14.21
2023-05-10T01:40:09.889Z,14.20
2023-05-10T01:41:09.885Z,14.20
2023-05-10T01:42:09.891Z,14.21
2023-05-10T01:43:09.890Z,14.20
2023-05-10T01:44:09.834Z,14.20
2023-05-10T01:45:09.840Z,14.18
2023-05-10T01:46:09.862Z,14.20
2023-05-10T01:47:09.843Z,14.18
2023-05-10T01:48:09.897Z,14.20
2023-05-10T01:49:09.810Z,14.20
2023-05-10T01:50:09.780Z,14.20
2023-05-10T01:51:09.792Z,14.20
2023-05-10T01:52:09.787Z,14.22
2023-05-10T01:53:09.747Z,14.24
2023-05-10T01:54:09.737Z,14.21
2023-05-10T01:55:09.735Z,14.24
2023-05-10T01:56:09.732Z,14.22
2023-05-10T01:57:09.717Z,14.21
2023-05-10T01:58:09.718Z,14.21
2023-05-10T01:59:09.695Z,14.17
2023-05-10T02:00:09.730Z,14.14
2023-05-10T02:01:09.748Z,14.12
2023-05-10T02:02:09.884Z,14.10
2023-05-10T02:03:09.755Z,14.10
2023-05-10T02:04:18.273Z,14.10
2023-05-10T02:05:09.660Z,14.12
2023-05-10T02:06:09.660Z,14.12
2023-05-10T02:07:09.630Z,14.10
2023-05-10T02:08:09.603Z,14.12
2023-05-10T02:09:09.602Z,14.10
2023-05-10T02:10:09.605Z,14.09
2023-05-10T02:11:09.566Z,14.09
2023-05-10T02:12:09.583Z,14.10
2023-05-10T02:13:09.932Z,14.09
2023-05-10T02:14:09.596Z,14.09
2023-05-10T02:15:09.542Z,14.07
2023-05-10T02:16:09.675Z,14.07
2023-05-10T02:17:09.599Z,14.07
2023-05-10T02:18:09.567Z,14.07
2023-05-10T02:19:09.513Z,14.07
2023-05-10T02:20:09.460Z,14.10
2023-05-10T02:21:09.497Z,14.10
2023-05-10T02:22:09.483Z,14.12
2023-05-10T02:23:09.467Z,14.14
2023-05-10T02:24:09.498Z,14.17
2023-05-10T02:25:09.468Z,14.20
2023-05-10T02:26:09.412Z,14.17
2023-05-10T02:27:09.426Z,14.17
2023-05-10T02:28:09.413Z,14.15
2023-05-10T02:29:09.372Z,14.15
2023-05-10T02:30:09.372Z,14.12
2023-05-10T02:31:09.325Z,14.10
2023-05-10T02:32:09.365Z,14.09
2023-05-10T02:33:09.353Z,14.07
2023-05-10T02:34:09.348Z,14.03
2023-05-10T02:35:09.299Z,14.00
2023-05-10T02:36:09.306Z,13.96
2023-05-10T02:37:09.262Z,13.92
2023-05-10T02:38:16.793Z,13.91
2023-05-10T02:39:09.241Z,13.88
2023-05-10T02:40:09.244Z,13.87
2023-05-10T02:41:09.222Z,13.84
2023-05-10T02:42:09.225Z,13.85
2023-05-10T02:43:09.199Z,13.81
2023-05-10T02:44:09.191Z,13.81
2023-05-10T02:45:09.180Z,13.81
2023-05-10T02:46:09.207Z,13.79
2023-05-10T02:47:09.165Z,13.78
2023-05-10T02:48:09.203Z,13.79
2023-05-10T02:49:09.151Z,13.77
2023-05-10T02:50:09.184Z,13.78
2023-05-10T02:51:09.133Z,13.77
2023-05-10T02:52:09.124Z,13.75
2023-05-10T02:53:09.091Z,13.75
2023-05-10T02:54:09.103Z,13.75
2023-05-10T02:55:09.105Z,13.73
2023-05-10T02:56:09.118Z,13.75
2023-05-10T02:57:09.110Z,13.75
2023-05-10T02:58:09.058Z,13.75
2023-05-10T02:59:09.052Z,13.77
2023-05-10T03:00:09.076Z,13.73
2023-05-10T03:01:09.173Z,13.75
2023-05-10T03:02:09.020Z,13.75
2023-05-10T03:03:09.050Z,13.75
2023-05-10T03:04:09.547Z,13.73
2023-05-10T03:05:08.982Z,13.71
2023-05-10T03:06:08.969Z,13.71
2023-05-10T03:07:08.990Z,13.69
2023-05-10T03:08:08.948Z,13.71
2023-05-10T03:09:08.976Z,13.67
2023-05-10T03:10:08.970Z,13.69
2023-05-10T03:11:09.179Z,13.67
2023-05-10T03:12:08.976Z,13.69
2023-05-10T03:13:09.187Z,13.64
2023-05-10T03:14:08.967Z,13.66
2023-05-10T03:15:08.874Z,13.64
2023-05-10T03:16:08.915Z,13.64
2023-05-10T03:17:08.841Z,13.63
2023-05-10T03:18:08.836Z,13.63
2023-05-10T03:19:08.811Z,13.63
2023-05-10T03:20:08.823Z,13.62
2023-05-10T03:21:08.813Z,13.62
2023-05-10T03:22:08.784Z,13.62
2023-05-10T03:23:08.780Z,13.62
2023-05-10T03:24:08.769Z,13.60
2023-05-10T03:25:08.762Z,13.60
2023-05-10T03:26:08.794Z,13.60
2023-05-10T03:27:08.755Z,13.59
2023-05-10T03:28:08.732Z,13.59
2023-05-10T03:29:08.736Z,13.60
2023-05-10T03:30:08.720Z,13.60
2023-05-10T03:31:08.683Z,13.57
2023-05-10T03:32:08.690Z,13.57
2023-05-10T03:33:08.801Z,13.57
2023-05-10T03:34:08.697Z,13.57
2023-05-10T03:35:08.735Z,13.57
2023-05-10T03:36:08.641Z,13.55
2023-05-10T03:37:08.630Z,13.57
2023-05-10T03:38:08.637Z,13.55
2023-05-10T03:39:08.611Z,13.57
2023-05-10T03:40:08.625Z,13.54
2023-05-10T03:41:08.581Z,13.57
2023-05-10T03:42:08.597Z,13.57
2023-05-10T03:43:08.571Z,13.57
2023-05-10T03:44:08.571Z,13.57
2023-05-10T03:45:08.548Z,13.55
2023-05-10T03:46:08.557Z,13.57
2023-05-10T03:47:08.781Z,13.55
2023-05-10T03:48:08.590Z,13.59
2023-05-10T03:49:08.516Z,13.55
2023-05-10T03:50:08.518Z,13.54
2023-05-10T03:51:08.481Z,13.55
2023-05-10T03:52:08.518Z,13.55
2023-05-10T03:53:08.463Z,13.54
2023-05-10T03:54:08.466Z,13.57
2023-05-10T03:55:08.417Z,13.55
2023-05-10T03:56:08.439Z,13.55
2023-05-10T03:57:08.434Z,13.55
2023-05-10T03:58:08.414Z,13.55
2023-05-10T03:59:08.467Z,13.52
2023-05-10T04:00:08.394Z,13.55
2023-05-10T04:01:08.342Z,13.55
2023-05-10T04:02:08.445Z,13.55
2023-05-10T04:03:08.499Z,13.55
2023-05-10T04:04:08.398Z,13.55
2023-05-10T04:05:08.332Z,13.55
2023-05-10T04:06:08.436Z,13.55
2023-05-10T04:07:08.313Z,13.57
2023-05-10T04:08:08.326Z,13.55
2023-05-10T04:09:08.275Z,13.55
2023-05-10T04:10:08.273Z,13.55
2023-05-10T04:11:08.272Z,13.57
2023-05-10T04:12:10.722Z,13.57
2023-05-10T04:13:08.276Z,13.59
2023-05-10T04:14:08.237Z,13.59
2023-05-10T04:15:08.247Z,13.59
2023-05-10T04:16:08.220Z,13.59
2023-05-10T04:17:08.306Z,13.60
2023-05-10T04:18:08.946Z,13.62
2023-05-10T04:19:08.181Z,13.60
2023-05-10T04:20:08.213Z,13.59
2023-05-10T04:21:08.157Z,13.60
2023-05-10T04:22:08.190Z,13.60
2023-05-10T04:23:08.142Z,13.60
2023-05-10T04:24:08.138Z,13.60
2023-05-10T04:25:08.114Z,13.60
2023-05-10T04:26:08.138Z,13.59
2023-05-10T04:27:08.104Z,13.60
2023-05-10T04:28:08.084Z,13.62
2023-05-10T04:29:08.072Z,13.62
2023-05-10T04:30:08.065Z,13.62
2023-05-10T04:31:08.233Z,13.60
2023-05-10T04:32:08.060Z,13.62
2023-05-10T04:33:08.114Z,13.60
2023-05-10T04:34:08.021Z,13.60
2023-05-10T04:35:08.018Z,13.63
2023-05-10T04:36:08.019Z,13.62
2023-05-10T04:37:08.047Z,13.59
2023-05-10T04:38:08.005Z,13.60
2023-05-10T04:39:07.931Z,13.62
2023-05-10T04:40:07.981Z,13.62
2023-05-10T04:41:07.947Z,13.62
2023-05-10T04:42:07.956Z,13.60
2023-05-10T04:43:07.939Z,13.59
2023-05-10T04:44:07.897Z,13.51
2023-05-10T04:45:07.897Z,13.41
2023-05-10T04:46:07.905Z,13.32
2023-05-10T04:47:08.896Z,13.29
2023-05-10T04:48:07.889Z,13.29
2023-05-10T04:49:07.853Z,13.30
2023-05-10T04:50:07.860Z,13.30
2023-05-10T04:51:07.860Z,13.30
2023-05-10T04:52:07.831Z,13.32
2023-05-10T04:53:07.803Z,13.30
2023-05-10T04:54:07.822Z,13.26
2023-05-10T04:55:07.876Z,13.25
2023-05-10T04:56:07.787Z,13.19
2023-05-10T04:57:07.898Z,13.14
2023-05-10T04:58:07.775Z,13.15
2023-05-10T04:59:07.761Z,13.14
2023-05-10T05:00:07.763Z,13.12
2023-05-10T05:01:07.715Z,13.11
2023-05-10T05:02:07.745Z,13.11
2023-05-10T05:03:07.834Z,13.07
2023-05-10T05:04:07.688Z,13.07
2023-05-10T05:05:07.685Z,13.07
2023-05-10T05:06:07.685Z,13.05
2023-05-10T05:07:07.654Z,13.05
2023-05-10T05:08:07.747Z,13.03
2023-05-10T05:09:07.633Z,13.03
2023-05-10T05:10:07.630Z,13.03
2023-05-10T05:11:07.624Z,13.01
2023-05-10T05:12:07.613Z,13.00
2023-05-10T05:13:07.744Z,12.95
2023-05-10T05:14:07.592Z,12.96
2023-05-10T05:15:09.612Z,12.96
2023-05-10T05:16:07.600Z,12.97
2023-05-10T05:17:07.554Z,12.93
2023-05-10T05:18:07.595Z,12.90
2023-05-10T05:19:07.536Z,12.90
2023-05-10T05:20:07.525Z,12.93
2023-05-10T05:21:07.515Z,12.92
2023-05-10T05:22:07.503Z,12.92
2023-05-10T05:23:07.481Z,12.92
2023-05-10T05:24:07.652Z,12.95
2023-05-10T05:25:07.464Z,12.93
2023-05-10T05:26:07.468Z,12.95
2023-05-10T05:27:07.472Z,12.95
2023-05-10T05:28:07.437Z,12.97
2023-05-10T05:29:07.461Z,12.97
2023-05-10T05:30:07.447Z,13.01
2023-05-10T05:31:07.403Z,12.96
2023-05-10T05:32:07.495Z,12.97
2023-05-10T05:33:07.410Z,12.97
2023-05-10T05:34:07.377Z,12.97
2023-05-10T05:35:07.354Z,13.01
2023-05-10T05:36:07.356Z,13.01
2023-05-10T05:37:07.341Z,13.00
2023-05-10T05:38:07.342Z,12.95
2023-05-10T05:39:07.412Z,12.92
2023-05-10T05:40:07.309Z,12.96
2023-05-10T05:41:07.285Z,13.00
2023-05-10T05:42:07.276Z,12.95
2023-05-10T05:43:07.257Z,12.95
2023-05-10T05:44:07.271Z,12.97
2023-05-10T05:45:07.253Z,12.92
2023-05-10T05:46:07.307Z,12.92
2023-05-10T05:47:07.237Z,12.93
2023-05-10T05:48:07.256Z,12.95
2023-05-10T05:49:07.194Z,12.96
2023-05-10T05:50:07.207Z,12.97
2023-05-10T05:51:07.533Z,12.97
2023-05-10T05:52:07.186Z,13.00
2023-05-10T05:53:07.167Z,13.01
2023-05-10T05:54:07.169Z,13.03
2023-05-10T05:55:07.189Z,13.03
2023-05-10T05:56:07.154Z,13.04
2023-05-10T05:57:07.125Z,13.05
2023-05-10T05:58:07.122Z,13.04
2023-05-10T05:59:07.113Z,13.08
2023-05-10T06:00:07.101Z,13.10
2023-05-10T06:01:07.094Z,13.11
2023-05-10T06:02:07.148Z,13.07
2023-05-10T06:03:07.129Z,13.07
2023-05-10T06:04:07.160Z,13.05
2023-05-10T06:05:07.038Z,13.05
2023-05-10T06:06:07.039Z,13.03
2023-05-10T06:07:07.044Z,13.04
2023-05-10T06:08:07.007Z,13.07
2023-05-10T06:09:07.010Z,13.04
2023-05-10T06:10:07.573Z,13.03
2023-05-10T06:11:06.976Z,13.01
2023-05-10T06:12:06.961Z,13.00
2023-05-10T06:13:07.001Z,13.01
2023-05-10T06:14:06.952Z,13.01
2023-05-10T06:15:06.937Z,12.97
2023-05-10T06:16:06.923Z,13.05
2023-05-10T06:17:06.922Z,13.04
2023-05-10T06:18:06.998Z,13.03
2023-05-10T06:19:06.897Z,13.04
2023-05-10T06:20:06.870Z,13.00
2023-05-10T06:21:06.880Z,12.97
2023-05-10T06:22:06.836Z,13.01
2023-05-10T06:23:06.861Z,12.96
2023-05-10T06:24:06.804Z,13.04
2023-05-10T06:25:06.808Z,13.04
2023-05-10T06:26:06.787Z,13.05
2023-05-10T06:27:06.809Z,13.05
2023-05-10T06:28:06.857Z,13.07
2023-05-10T06:29:06.800Z,13.10
2023-05-10T06:30:13.030Z,13.05
2023-05-10T06:31:07.819Z,13.07
2023-05-10T06:32:06.745Z,13.11
2023-05-10T06:33:06.821Z,13.15
2023-05-10T06:34:06.709Z,13.19
2023-05-10T06:35:06.745Z,13.19
2023-05-10T06:36:06.688Z,13.15
2023-05-10T06:37:06.702Z,13.15
2023-05-10T06:38:06.693Z,13.19
2023-05-10T06:39:06.679Z,13.23
2023-05-10T06:40:06.653Z,13.15
2023-05-10T06:41:06.744Z,13.15
2023-05-10T06:42:06.613Z,13.17
2023-05-10T06:43:06.676Z,13.25
2023-05-10T06:44:06.598Z,13.26
2023-05-10T06:45:06.602Z,13.23
2023-05-10T06:46:06.624Z,13.28
2023-05-10T06:47:06.597Z,13.25
2023-05-10T06:48:06.609Z,13.23
2023-05-10T06:49:06.571Z,13.25
2023-05-10T06:50:06.547Z,13.26
2023-05-10T06:51:06.574Z,13.26
2023-05-10T06:52:06.540Z,13.28
2023-05-10T06:53:06.520Z,13.30
2023-05-10T06:54:06.496Z,13.29
2023-05-10T06:55:06.511Z,13.25
2023-05-10T06:56:06.501Z,13.23
2023-05-10T06:57:13.023Z,13.19
2023-05-10T06:58:07.472Z,13.23
2023-05-10T06:59:06.545Z,13.23
2023-05-10T07:00:06.493Z,13.30
2023-05-10T07:01:06.486Z,13.28
2023-05-10T07:02:06.451Z,13.33
2023-05-10T07:03:06.451Z,13.36
2023-05-10T07:04:06.402Z,13.32
2023-05-10T07:05:06.411Z,13.33
2023-05-10T07:06:06.380Z,13.38
2023-05-10T07:07:06.390Z,13.42
2023-05-10T07:08:06.348Z,13.45
2023-05-10T07:09:06.345Z,13.41
2023-05-10T07:10:06.326Z,13.39
2023-05-10T07:11:06.339Z,13.33
2023-05-10T07:12:08.067Z,13.36
2023-05-10T07:13:06.368Z,13.38
2023-05-10T07:14:06.304Z,13.41
2023-05-10T07:15:06.314Z,13.41
2023-05-10T07:16:06.295Z,13.44
2023-05-10T07:17:06.280Z,13.41
2023-05-10T07:18:06.339Z,13.46
2023-05-10T07:19:06.249Z,13.46
2023-05-10T07:20:06.249Z,13.55
2023-05-10T07:21:06.580Z,13.59
2023-05-10T07:22:06.209Z,13.69
2023-05-10T07:23:06.258Z,13.73
2023-05-10T07:24:06.189Z,13.75
2023-05-10T07:25:06.198Z,13.81
2023-05-10T07:26:06.230Z,13.79
2023-05-10T07:27:06.156Z,13.78
2023-05-10T07:28:06.168Z,13.85
2023-05-10T07:29:06.426Z,13.91
2023-05-10T07:30:06.117Z,13.89
2023-05-10T07:31:06.145Z,13.96
2023-05-10T07:32:06.124Z,13.99
2023-05-10T07:33:06.169Z,14.00
2023-05-10T07:34:06.079Z,13.96
2023-05-10T07:35:06.063Z,13.91
2023-05-10T07:36:06.068Z,13.89
2023-05-10T07:37:06.036Z,13.91
2023-05-10T07:38:06.039Z,13.97
2023-05-10T07:39:06.024Z,14.00
2023-05-10T07:40:06.016Z,14.04
2023-05-10T07:41:06.004Z,14.09
2023-05-10T07:42:05.967Z,14.12
2023-05-10T07:43:06.090Z,14.22
2023-05-10T07:44:05.999Z,14.28
2023-05-10T07:45:05.977Z,14.39
2023-05-10T07:46:05.997Z,14.45
2023-05-10T07:47:05.963Z,14.39
2023-05-10T07:48:05.949Z,14.36
2023-05-10T07:49:05.927Z,14.43
2023-05-10T07:50:05.928Z,14.43
2023-05-10T07:51:05.956Z,14.52
2023-05-10T07:52:05.889Z,14.64
2023-05-10T07:53:05.881Z,14.77
2023-05-10T07:54:06.873Z,14.69
2023-05-10T07:55:05.861Z,14.69
2023-05-10T07:56:05.853Z,14.75
2023-05-10T07:57:05.845Z,14.61
2023-05-10T07:58:05.821Z,14.54
2023-05-10T07:59:05.830Z,14.46
2023-05-10T08:00:05.798Z,14.45
2023-05-10T08:01:05.817Z,14.51
2023-05-10T08:02:05.792Z,14.52
2023-05-10T08:03:05.862Z,14.52
2023-05-10T08:04:05.859Z,14.50
2023-05-10T08:05:14.712Z,14.52
2023-05-10T08:06:05.745Z,14.43
2023-05-10T08:07:05.730Z,14.40
2023-05-10T08:08:07.466Z,14.40
2023-05-10T08:09:05.700Z,14.40
2023-05-10T08:10:05.679Z,14.45
2023-05-10T08:11:05.674Z,14.46
2023-05-10T08:12:05.660Z,14.51
2023-05-10T08:13:05.655Z,14.58
2023-05-10T08:14:05.713Z,14.62
2023-05-10T08:15:05.638Z,14.69
2023-05-10T08:16:05.630Z,14.80
2023-05-10T08:17:05.610Z,14.81
2023-05-10T08:18:05.654Z,14.86
2023-05-10T08:19:06.605Z,14.86
2023-05-10T08:20:05.562Z,14.89
2023-05-10T08:21:05.564Z,14.89
2023-05-10T08:22:05.544Z,14.84
2023-05-10T08:23:05.600Z,14.84
2023-05-10T08:24:05.525Z,14.83
2023-05-10T08:25:05.523Z,14.77
2023-05-10T08:26:05.502Z,14.77
2023-05-10T08:27:05.494Z,14.83
2023-05-10T08:28:05.480Z,14.94
2023-05-10T08:29:05.495Z,15.06
2023-05-10T08:30:05.476Z,15.13
2023-05-10T08:31:05.498Z,15.10
2023-05-10T08:32:05.426Z,15.11
2023-05-10T08:33:05.495Z,15.11
2023-05-10T08:34:05.420Z,15.03
2023-05-10T08:35:05.410Z,14.99
2023-05-10T08:36:05.395Z,14.99
2023-05-10T08:37:05.411Z,15.02
2023-05-10T08:38:05.362Z,15.09
2023-05-10T08:39:07.682Z,15.27
2023-05-10T08:40:06.385Z,15.44
2023-05-10T08:41:05.350Z,15.62
2023-05-10T08:42:05.342Z,15.76
2023-05-10T08:43:05.321Z,15.83
2023-05-10T08:44:05.315Z,15.96
2023-05-10T08:45:07.831Z,16.02
2023-05-10T08:46:05.322Z,16.11
2023-05-10T08:47:05.325Z,16.15
2023-05-10T08:48:05.280Z,16.11
2023-05-10T08:49:05.248Z,16.21
2023-05-10T08:50:05.250Z,16.20
2023-05-10T08:51:05.241Z,16.09
2023-05-10T08:52:05.240Z,15.97
2023-05-10T08:53:05.245Z,15.90
2023-05-10T08:54:05.182Z,15.83
2023-05-10T08:55:05.196Z,15.74
2023-05-10T08:56:05.180Z,15.76
2023-05-10T08:57:05.180Z,15.84
2023-05-10T08:58:05.182Z,15.84
2023-05-10T08:59:05.150Z,15.87
2023-05-10T09:00:05.129Z,16.00
2023-05-10T09:01:05.189Z,16.12
2023-05-10T09:02:05.120Z,16.23
2023-05-10T09:03:05.161Z,16.35
2023-05-10T09:04:05.189Z,16.39
2023-05-10T09:05:05.193Z,16.35
2023-05-10T09:06:05.089Z,16.31
2023-05-10T09:07:05.072Z,16.11
2023-05-10T09:08:05.041Z,16.01
2023-05-10T09:09:05.042Z,16.00
2023-05-10T09:10:05.027Z,16.00
2023-05-10T09:11:05.034Z,16.02
2023-05-10T09:12:05.009Z,16.04
2023-05-10T09:13:05.022Z,16.05
2023-05-10T09:14:04.977Z,16.08
2023-05-10T09:15:05.001Z,16.09
2023-05-10T09:16:19.866Z,16.09
2023-05-10T09:17:06.007Z,16.12
2023-05-10T09:18:05.002Z,16.09
2023-05-10T09:19:05.012Z,15.96
2023-05-10T09:20:04.912Z,15.93
2023-05-10T09:21:04.914Z,15.87
2023-05-10T09:22:04.905Z,15.82
2023-05-10T09:23:04.932Z,15.80
2023-05-10T09:24:04.879Z,15.93
2023-05-10T09:25:04.883Z,16.14
2023-05-10T09:26:04.836Z,16.31
2023-05-10T09:27:04.860Z,16.42
2023-05-10T09:28:04.834Z,16.50
2023-05-10T09:29:04.817Z,16.66
2023-05-10T09:30:04.776Z,16.79
2023-05-10T09:31:04.819Z,16.97
2023-05-10T09:32:04.801Z,17.04
2023-05-10T09:33:04.833Z,17.28
2023-05-10T09:34:04.747Z,17.44
2023-05-10T09:35:04.748Z,17.59
2023-05-10T09:36:04.751Z,17.66
2023-05-10T09:37:04.730Z,17.63
2023-05-10T09:38:04.712Z,17.72
2023-05-10T09:39:04.720Z,17.72
2023-05-10T09:40:04.686Z,17.71
2023-05-10T09:41:04.683Z,17.59
2023-05-10T09:42:04.745Z,17.33
2023-05-10T09:43:04.673Z,17.52
2023-05-10T09:44:04.636Z,17.71
2023-05-10T09:45:04.639Z,17.84
2023-05-10T09:46:04.634Z,17.75
2023-05-10T09:47:06.488Z,17.63
2023-05-10T09:48:04.649Z,17.56
2023-05-10T09:49:04.610Z,17.63
2023-05-10T09:50:04.579Z,17.63
2023-05-10T09:51:04.594Z,17.56
2023-05-10T09:52:04.564Z,17.62
2023-05-10T09:53:04.880Z,17.89
2023-05-10T09:54:04.542Z,18.11
2023-05-10T09:55:04.543Z,18.14
2023-05-10T09:56:04.523Z,18.51
2023-05-10T09:57:04.537Z,18.73
2023-05-10T09:58:05.189Z,18.69
2023-05-10T09:59:04.506Z,18.66
2023-05-10T10:00:04.479Z,18.63
2023-05-10T10:01:04.482Z,18.65
2023-05-10T10:02:04.624Z,18.67
2023-05-10T10:03:04.520Z,18.70
2023-05-10T10:04:04.427Z,18.67
2023-05-10T10:05:04.609Z,18.60
2023-05-10T10:06:04.410Z,18.67
2023-05-10T10:07:04.608Z,19.08
2023-05-10T10:08:04.411Z,18.91
2023-05-10T10:09:04.413Z,18.72
2023-05-10T10:10:04.416Z,18.50
2023-05-10T10:11:04.367Z,18.37
2023-05-10T10:12:04.350Z,18.33
2023-05-10T10:13:04.366Z,18.10
2023-05-10T10:14:04.350Z,18.11
2023-05-10T10:15:04.346Z,18.23
2023-05-10T10:16:04.361Z,18.20
2023-05-10T10:17:08.057Z,18.26
2023-05-10T10:18:05.550Z,18.27
2023-05-10T10:19:04.359Z,18.07
2023-05-10T10:20:04.290Z,17.84
2023-05-10T10:21:04.248Z,17.58
2023-05-10T10:22:04.338Z,17.49
2023-05-10T10:23:04.238Z,17.49
2023-05-10T10:24:04.224Z,17.51
2023-05-10T10:25:04.197Z,17.55
2023-05-10T10:26:04.238Z,17.64
2023-05-10T10:27:04.198Z,17.75
2023-05-10T10:28:04.197Z,18.23
2023-05-10T10:29:04.172Z,18.57
2023-05-10T10:30:04.165Z,18.54
2023-05-10T10:31:04.203Z,18.63
2023-05-10T10:32:04.168Z,19.10
2023-05-10T10:33:13.340Z,18.95
2023-05-10T10:34:05.146Z,18.75
2023-05-10T10:35:04.121Z,18.42
2023-05-10T10:36:04.117Z,18.29
2023-05-10T10:37:04.079Z,18.18
2023-05-10T10:38:04.095Z,18.07
2023-05-10T10:39:04.108Z,17.96
2023-05-10T10:40:04.062Z,17.87
2023-05-10T10:41:04.087Z,17.90
2023-05-10T10:42:04.041Z,18.18
2023-05-10T10:43:04.022Z,18.37
2023-05-10T10:44:04.012Z,18.55
2023-05-10T10:45:04.004Z,18.55
2023-05-10T10:46:03.998Z,18.47
2023-05-10T10:47:04.027Z,18.54
2023-05-10T10:48:04.014Z,18.70
2023-05-10T10:49:04.004Z,18.76
2023-05-10T10:50:03.977Z,18.72
2023-05-10T10:51:03.941Z,18.88
2023-05-10T10:52:03.934Z,19.11
2023-05-10T10:53:03.956Z,19.25
2023-05-10T10:54:03.901Z,19.36
2023-05-10T10:55:03.933Z,19.43
2023-05-10T10:56:03.889Z,19.33
2023-05-10T10:57:03.873Z,19.26
2023-05-10T10:58:03.906Z,19.25
2023-05-10T10:59:03.848Z,18.72
2023-05-10T11:00:03.856Z,18.66
2023-05-10T11:01:03.873Z,18.85
2023-05-10T11:02:03.823Z,19.11
2023-05-10T11:03:03.851Z,19.58
2023-05-10T11:04:03.844Z,19.71
2023-05-10T11:05:03.787Z,19.84
2023-05-10T11:06:03.787Z,19.76
2023-05-10T11:07:03.749Z,20.10
2023-05-10T11:08:03.765Z,20.50
2023-05-10T11:09:03.741Z,20.51
2023-05-10T11:10:03.750Z,19.94
2023-05-10T11:11:03.703Z,19.66
2023-05-10T11:12:03.718Z,19.71
2023-05-10T11:13:03.694Z,19.95
2023-05-10T11:14:03.694Z,20.29
2023-05-10T11:15:03.684Z,20.76
2023-05-10T11:16:03.672Z,20.92
2023-05-10T11:17:03.708Z,20.76
2023-05-10T11:18:03.710Z,20.58
2023-05-10T11:19:03.752Z,20.51
2023-05-10T11:20:03.827Z,20.52
2023-05-10T11:21:03.615Z,20.59
2023-05-10T11:22:03.660Z,20.89
2023-05-10T11:23:03.592Z,21.17
2023-05-10T11:24:03.604Z,21.50
2023-05-10T11:25:03.598Z,21.19
2023-05-10T11:26:03.573Z,21.09
2023-05-10T11:27:03.569Z,20.61
2023-05-10T11:28:03.539Z,20.14
2023-05-10T11:29:03.530Z,19.91
2023-05-10T11:30:05.057Z,19.88
2023-05-10T11:31:03.579Z,19.95
2023-05-10T11:32:03.530Z,19.84
2023-05-10T11:33:03.537Z,19.73
2023-05-10T11:34:03.501Z,19.88
2023-05-10T11:35:03.476Z,20.13
2023-05-10T11:36:03.491Z,19.95
2023-05-10T11:37:03.434Z,19.78
2023-05-10T11:38:03.448Z,19.33
2023-05-10T11:39:03.415Z,19.14
2023-05-10T11:40:03.424Z,19.31
2023-05-10T11:41:03.398Z,19.50
2023-05-10T11:42:03.429Z,19.77
2023-05-10T11:43:03.396Z,19.95
2023-05-10T11:44:03.397Z,20.10
2023-05-10T11:45:03.389Z,20.10
2023-05-10T11:46:03.385Z,19.74
2023-05-10T11:47:03.369Z,19.83
2023-05-10T11:48:03.381Z,19.86
2023-05-10T11:49:03.286Z,19.81
2023-05-10T11:50:03.314Z,20.16
2023-05-10T11:51:03.393Z,20.39
2023-05-10T11:52:03.310Z,20.79
2023-05-10T11:53:03.272Z,20.59
2023-05-10T11:54:03.283Z,20.21
2023-05-10T11:55:03.261Z,20.24
2023-05-10T11:56:03.278Z,20.01
2023-05-10T11:57:03.274Z,19.99
2023-05-10T11:58:03.259Z,19.77
2023-05-10T11:59:03.257Z,19.99
2023-05-10T12:00:03.232Z,19.98
2023-05-10T12:01:03.170Z,19.91
2023-05-10T12:02:03.257Z,19.95
2023-05-10T12:03:03.335Z,19.98
2023-05-10T12:04:03.295Z,19.95
2023-05-10T12:05:03.380Z,19.95
2023-05-10T12:06:03.159Z,20.35
2023-05-10T12:07:03.113Z,20.73
2023-05-10T12:08:03.139Z,20.72
2023-05-10T12:09:03.116Z,20.87
2023-05-10T12:10:03.082Z,20.94
2023-05-10T12:11:03.078Z,20.67
2023-05-10T12:12:03.081Z,20.13
2023-05-10T12:13:03.067Z,20.43
2023-05-10T12:14:03.069Z,20.72
2023-05-10T12:15:03.057Z,21.17
2023-05-10T12:16:03.053Z,21.44
2023-05-10T12:17:03.084Z,21.14
2023-05-10T12:18:03.148Z,20.89
2023-05-10T12:19:03.181Z,20.77
2023-05-10T12:20:03.019Z,20.55
2023-05-10T12:21:02.993Z,20.38
2023-05-10T12:22:03.102Z,20.54
2023-05-10T12:23:02.975Z,20.76
2023-05-10T12:24:02.966Z,20.73
2023-05-10T12:25:02.953Z,20.62
2023-05-10T12:26:02.958Z,20.54
2023-05-10T12:27:02.928Z,21.03
2023-05-10T12:28:02.923Z,21.31
2023-05-10T12:29:02.895Z,21.64
2023-05-10T12:30:02.957Z,21.52
2023-05-10T12:31:02.893Z,21.65
2023-05-10T12:32:02.947Z,21.83
2023-05-10T12:33:02.905Z,21.94
2023-05-10T12:34:02.853Z,21.90
2023-05-10T12:35:02.840Z,21.80
2023-05-10T12:36:02.855Z,21.50
2023-05-10T12:37:02.837Z,21.46
2023-05-10T12:38:02.785Z,21.77
2023-05-10T12:39:02.809Z,22.14
2023-05-10T12:40:02.825Z,22.46
2023-05-10T12:41:02.804Z,22.05
2023-05-10T12:42:02.774Z,22.02
2023-05-10T12:43:02.775Z,22.10
2023-05-10T12:44:02.734Z,21.98
2023-05-10T12:45:02.752Z,21.90
2023-05-10T12:46:02.787Z,21.37
2023-05-10T12:47:02.695Z,21.06
2023-05-10T12:48:02.801Z,21.49
2023-05-10T12:49:08.981Z,21.14
2023-05-10T12:50:03.712Z,20.80
2023-05-10T12:51:02.678Z,20.62
2023-05-10T12:52:02.690Z,20.58